Time;durP1;ratioP1;P1;durP2;ratioP2;P2;SDS_P1;SDS_P2;PMS_P1;PMS_P2;Temp;Humidity;BMP_temperature;BMP_pressure;BME280_temperature;BME280_humidity;BME280_pressure;Samples;Min_cycle;Max_cycle;Signal;HPM_P1;HPM_P2
2022/03/25 00:00:55;;;;;;;0.30;0.20;;;4.10;84.90;;;;;;5067843;28;20448;-90
2022/03/25 00:03:22;;;;;;;0.30;0.20;;;4.10;84.90;;;;;;5063958;28;20466;-90
2022/03/25 00:05:49;;;;;;;0.30;0.10;;;4.00;85.20;;;;;;5069069;28;20465;-89
2022/03/25 00:08:17;;;;;;;0.30;0.10;;;3.90;85.50;;;;;;5079492;28;20463;-89
2022/03/25 00:10:46;;;;;;;0.30;0.20;;;3.90;85.80;;;;;;5080672;28;20479;-90
2022/03/25 00:13:13;;;;;;;0.73;0.73;;;3.90;85.50;;;;;;5060241;28;20461;-89
2022/03/25 00:15:40;;;;;;;0.30;0.10;;;4.00;85.10;;;;;;5069335;28;20458;-90
2022/03/25 00:18:08;;;;;;;0.30;0.10;;;4.10;84.50;;;;;;5069071;28;20543;-88
2022/03/25 00:20:35;;;;;;;0.40;0.30;;;4.20;84.30;;;;;;5077509;28;20466;-90
2022/03/25 00:23:02;;;;;;;0.30;0.17;;;4.10;83.90;;;;;;5072405;28;20452;-89
2022/03/25 00:25:30;;;;;;;0.30;0.20;;;4.10;84.00;;;;;;5059545;28;20451;-90
2022/03/25 00:27:59;;;;;;;0.30;0.17;;;4.10;84.20;;;;;;5060498;28;20981;-90
2022/03/25 00:30:26;;;;;;;1.43;0.80;;;4.00;84.30;;;;;;5056022;28;20958;-90
2022/03/25 00:32:54;;;;;;;2.73;0.87;;;3.90;84.50;;;;;;5067883;28;20451;-89
2022/03/25 00:35:21;;;;;;;0.30;0.13;;;3.90;84.60;;;;;;5061164;28;20486;-90
2022/03/25 00:37:48;;;;;;;0.30;0.10;;;3.90;84.90;;;;;;5067059;28;20460;-89
2022/03/25 00:40:15;;;;;;;0.30;0.20;;;3.90;85.00;;;;;;5059539;28;20479;-89
2022/03/25 00:42:43;;;;;;;0.30;0.20;;;3.80;85.00;;;;;;5073270;28;20539;-88
2022/03/25 00:45:12;;;;;;;0.40;0.40;;;3.80;85.40;;;;;;5070970;28;20451;-87
2022/03/25 00:47:39;;;;;;;0.30;0.20;;;3.80;85.60;;;;;;5061488;28;20484;-89
2022/03/25 00:50:07;;;;;;;0.63;0.40;;;3.80;85.70;;;;;;5065397;28;21035;-90
2022/03/25 00:52:35;;;;;;;0.30;0.20;;;3.80;85.70;;;;;;5064529;28;20452;-89
2022/03/25 00:55:02;;;;;;;0.40;0.20;;;3.90;86.00;;;;;;5059901;28;21237;-88
2022/03/25 00:57:29;;;;;;;0.30;0.10;;;3.80;85.50;;;;;;5062104;28;21018;-89
2022/03/25 00:59:56;;;;;;;0.30;0.20;;;3.80;85.50;;;;;;5059468;28;20927;-88
2022/03/25 01:02:25;;;;;;;0.30;0.10;;;3.70;85.60;;;;;;5059335;28;20456;-88
2022/03/25 01:04:52;;;;;;;0.57;0.57;;;3.70;85.90;;;;;;5062773;28;20456;-89
2022/03/25 01:07:19;;;;;;;0.30;0.20;;;3.60;86.00;;;;;;5060882;28;20474;-88
2022/03/25 01:09:46;;;;;;;0.30;0.30;;;3.60;86.30;;;;;;5056629;28;20502;-88
2022/03/25 01:12:14;;;;;;;0.30;0.10;;;3.50;86.60;;;;;;5056845;28;20882;-89
2022/03/25 01:14:41;;;;;;;0.30;0.13;;;3.60;87.30;;;;;;5058818;28;20460;-89
2022/03/25 01:17:09;;;;;;;2.43;2.33;;;3.50;87.50;;;;;;5057538;28;20473;-88
2022/03/25 01:19:38;;;;;;;1.33;1.20;;;3.40;88.20;;;;;;5066667;28;20503;-88
2022/03/25 01:22:05;;;;;;;0.67;0.67;;;3.30;88.60;;;;;;5055018;28;20456;-89
2022/03/25 01:24:33;;;;;;;0.40;0.30;;;3.30;89.00;;;;;;5055112;28;20454;-91
2022/03/25 01:27:00;;;;;;;3.00;0.70;;;3.20;89.70;;;;;;5055908;28;20508;-90
2022/03/25 01:29:29;;;;;;;0.40;0.23;;;3.20;89.90;;;;;;5061427;28;20482;-89
2022/03/25 01:31:56;;;;;;;0.30;0.20;;;3.20;90.20;;;;;;5055882;28;20907;-89
2022/03/25 01:34:23;;;;;;;0.50;0.50;;;3.10;90.20;;;;;;5058673;28;20927;-88
2022/03/25 01:36:52;;;;;;;0.30;0.10;;;3.00;90.30;;;;;;5062111;28;20451;-88
2022/03/25 01:39:19;;;;;;;0.30;0.20;;;3.00;90.50;;;;;;5062080;28;20452;-89
2022/03/25 01:41:48;;;;;;;0.40;0.20;;;3.00;90.60;;;;;;5063720;28;20517;-89
2022/03/25 01:44:15;;;;;;;0.30;0.20;;;3.00;90.80;;;;;;5056016;28;20506;-88
2022/03/25 01:46:43;;;;;;;0.40;0.30;;;2.90;90.90;;;;;;5066471;28;20460;-90
2022/03/25 01:49:10;;;;;;;0.30;0.10;;;2.90;91.10;;;;;;5069117;28;20482;-88
2022/03/25 01:51:39;;;;;;;0.50;0.50;;;2.80;91.40;;;;;;5069740;28;20451;-89
2022/03/25 01:54:17;;;;;;;0.50;0.50;;;2.80;91.60;;;;;;5061028;28;21002;-89
2022/03/25 01:56:44;;;;;;;4.00;0.83;;;2.70;91.70;;;;;;5059323;28;20935;-90
2022/03/25 01:59:12;;;;;;;0.40;0.23;;;2.80;91.80;;;;;;5060902;28;20458;-89
2022/03/25 02:01:40;;;;;;;8.23;1.70;;;2.70;91.90;;;;;;5062241;28;20455;-88
2022/03/25 02:04:07;;;;;;;0.33;0.17;;;2.70;92.10;;;;;;5064538;28;20463;-91
2022/03/25 02:06:34;;;;;;;0.30;0.10;;;2.70;92.10;;;;;;5066630;28;20966;-89
2022/03/25 02:09:01;;;;;;;0.30;0.10;;;2.70;92.20;;;;;;5085238;28;20473;-89
2022/03/25 02:11:31;;;;;;;1.53;0.60;;;2.70;92.30;;;;;;5055900;28;20460;-89
2022/03/25 02:13:58;;;;;;;0.30;0.20;;;2.70;92.40;;;;;;5058518;28;20472;-89
2022/03/25 02:16:35;;;;;;;0.50;0.40;;;2.60;92.40;;;;;;5062119;28;20541;-89
2022/03/25 02:19:03;;;;;;;0.30;0.10;;;2.50;92.70;;;;;;5067555;28;20479;-88
2022/03/25 02:21:32;;;;;;;1.50;1.50;;;2.50;92.90;;;;;;5069548;28;20476;-87
2022/03/25 02:24:00;;;;;;;0.77;0.77;;;2.40;92.80;;;;;;5065838;28;20485;-87
2022/03/25 02:26:28;;;;;;;0.30;0.10;;;2.40;93.10;;;;;;5065811;28;20510;-91
2022/03/25 02:28:55;;;;;;;0.30;0.10;;;2.40;93.40;;;;;;5057164;28;20888;-90
2022/03/25 02:31:23;;;;;;;0.30;0.20;;;2.40;93.40;;;;;;5063390;28;20465;-88
2022/03/25 02:33:50;;;;;;;0.73;0.73;;;2.30;93.50;;;;;;5062420;28;20444;-89
2022/03/25 02:36:17;;;;;;;0.30;0.10;;;2.40;93.40;;;;;;5061703;28;21242;-90
2022/03/25 02:38:45;;;;;;;0.30;0.10;;;2.50;93.40;;;;;;5068150;28;20452;-89
2022/03/25 02:41:13;;;;;;;0.40;0.30;;;2.40;93.00;;;;;;5055431;28;20455;-89
2022/03/25 02:43:40;;;;;;;0.40;0.30;;;2.40;93.20;;;;;;5071284;28;20443;-88
2022/03/25 02:46:07;;;;;;;0.50;0.50;;;2.30;93.30;;;;;;5062706;28;20550;-90
2022/03/25 02:48:34;;;;;;;0.30;0.10;;;2.30;93.60;;;;;;5064796;28;20862;-89
2022/03/25 02:51:01;;;;;;;0.30;0.20;;;2.30;93.70;;;;;;5063529;28;20456;-89
2022/03/25 02:53:28;;;;;;;0.30;0.10;;;2.20;93.60;;;;;;5063128;28;20452;-87
2022/03/25 02:55:57;;;;;;;0.60;0.60;;;2.20;93.80;;;;;;5055864;28;20551;-88
2022/03/25 02:58:24;;;;;;;0.30;0.20;;;2.20;94.00;;;;;;5075942;28;20464;-89
2022/03/25 03:00:51;;;;;;;0.30;0.20;;;2.20;94.20;;;;;;5077386;28;20483;-89
2022/03/25 03:03:19;;;;;;;0.30;0.10;;;2.20;94.00;;;;;;5071113;28;20459;-89
2022/03/25 03:05:46;;;;;;;0.30;0.10;;;2.20;94.10;;;;;;5072118;28;20497;-89
2022/03/25 03:08:13;;;;;;;0.30;0.10;;;2.10;94.10;;;;;;5057816;28;20467;-88
2022/03/25 03:10:40;;;;;;;1.03;1.03;;;2.00;94.40;;;;;;5056375;28;20485;-87
2022/03/25 03:13:09;;;;;;;0.30;0.20;;;1.90;94.80;;;;;;5068269;28;20675;-89
2022/03/25 03:15:37;;;;;;;0.30;0.20;;;1.90;95.40;;;;;;5077613;28;20445;-84
2022/03/25 03:18:05;;;;;;;0.87;0.87;;;1.80;95.70;;;;;;5059853;28;21265;-86
2022/03/25 03:20:32;;;;;;;0.30;0.10;;;1.70;96.10;;;;;;5052511;28;20472;-86
2022/03/25 03:22:59;;;;;;;0.30;0.10;;;1.70;96.50;;;;;;5055388;28;20522;-87
2022/03/25 03:25:26;;;;;;;0.30;0.20;;;1.60;96.70;;;;;;5061015;28;20539;-85
2022/03/25 03:27:56;;;;;;;0.30;0.10;;;1.60;96.90;;;;;;5062417;28;20476;-85
2022/03/25 03:30:24;;;;;;;1.13;0.97;;;1.70;97.10;;;;;;5069192;28;20475;-85
2022/03/25 03:32:55;;;;;;;0.30;0.20;;;1.70;97.10;;;;;;5069309;28;20468;-87
2022/03/25 03:35:22;;;;;;;0.30;0.20;;;1.70;97.00;;;;;;5066231;28;20467;-86
2022/03/25 03:37:49;;;;;;;0.30;0.10;;;1.60;97.00;;;;;;5063026;28;20450;-86
2022/03/25 03:40:16;;;;;;;0.60;0.60;;;1.60;97.00;;;;;;5057131;28;21070;-86
2022/03/25 03:42:44;;;;;;;0.40;0.30;;;1.60;96.90;;;;;;5054043;28;20497;-86
2022/03/25 03:45:12;;;;;;;0.30;0.20;;;1.60;97.00;;;;;;5062377;28;20500;-86
2022/03/25 03:47:42;;;;;;;0.30;0.20;;;1.50;97.20;;;;;;5065161;28;20460;-87
2022/03/25 03:50:12;;;;;;;0.70;0.70;;;1.50;97.30;;;;;;5062624;28;20490;-89
2022/03/25 03:52:39;;;;;;;0.60;0.57;;;1.50;97.40;;;;;;5064957;28;20551;-87
2022/03/25 03:55:09;;;;;;;0.30;0.20;;;1.50;97.30;;;;;;5062966;28;20511;-86
2022/03/25 03:57:36;;;;;;;0.30;0.20;;;1.50;97.50;;;;;;5054441;28;20461;-86
2022/03/25 04:00:05;;;;;;;0.30;0.20;;;1.50;97.70;;;;;;5061374;28;20867;-87
2022/03/25 04:02:32;;;;;;;0.30;0.20;;;1.40;97.60;;;;;;5061062;28;20514;-87
2022/03/25 04:05:00;;;;;;;0.30;0.10;;;1.50;98.00;;;;;;5058533;28;20464;-85
2022/03/25 04:07:27;;;;;;;0.40;0.20;;;1.70;97.90;;;;;;5062203;28;20834;-86
2022/03/25 04:09:54;;;;;;;0.30;0.10;;;1.70;97.30;;;;;;5064950;28;20838;-87
2022/03/25 04:12:21;;;;;;;0.30;0.10;;;1.70;97.30;;;;;;5056286;28;20960;-86
2022/03/25 04:14:48;;;;;;;0.30;0.10;;;1.70;97.20;;;;;;5053455;28;20885;-86
2022/03/25 04:17:16;;;;;;;0.30;0.10;;;1.60;97.20;;;;;;5057636;28;20507;-87
2022/03/25 04:19:43;;;;;;;0.30;0.10;;;1.50;97.10;;;;;;5049852;28;20544;-87
2022/03/25 04:22:11;;;;;;;0.30;0.20;;;1.40;97.30;;;;;;5060025;28;20497;-86
2022/03/25 04:24:38;;;;;;;0.30;0.10;;;1.20;97.90;;;;;;5063934;28;20456;-87
2022/03/25 04:27:05;;;;;;;0.30;0.20;;;1.20;98.40;;;;;;5055436;28;20464;-86
2022/03/25 04:29:32;;;;;;;0.30;0.10;;;1.00;98.70;;;;;;5062530;28;20484;-86
2022/03/25 04:31:59;;;;;;;1.60;1.30;;;0.90;99.00;;;;;;5063127;28;20513;-85
2022/03/25 04:34:26;;;;;;;0.93;0.30;;;0.80;99.30;;;;;;5058151;28;20871;-86
2022/03/25 04:36:53;;;;;;;0.60;0.53;;;0.80;99.90;;;;;;5060529;28;20540;-87
2022/03/25 04:39:22;;;;;;;3.70;0.83;;;0.80;99.90;;;;;;5062014;28;20514;-86
2022/03/25 04:41:49;;;;;;;0.30;0.10;;;0.70;99.90;;;;;;5060912;28;20465;-86
2022/03/25 04:44:16;;;;;;;0.30;0.10;;;0.70;99.90;;;;;;5054568;28;20453;-86
2022/03/25 04:46:43;;;;;;;0.40;0.40;;;0.90;99.90;;;;;;5064023;28;20497;-87
2022/03/25 04:49:10;;;;;;;0.30;0.10;;;0.90;99.90;;;;;;5058521;28;20456;-86
2022/03/25 04:51:37;;;;;;;0.30;0.10;;;0.90;99.90;;;;;;5060481;28;20458;-87
2022/03/25 04:54:05;;;;;;;0.30;0.10;;;1.00;99.90;;;;;;5056097;28;20447;-88
2022/03/25 04:56:34;;;;;;;0.30;0.10;;;1.10;99.90;;;;;;5053366;28;20253;-88
2022/03/25 04:59:02;;;;;;;0.30;0.10;;;1.10;99.90;;;;;;5057754;28;20287;-86
2022/03/25 05:01:29;;;;;;;2.40;1.23;;;1.10;99.90;;;;;;5066310;28;20200;-87
2022/03/25 05:03:56;;;;;;;0.30;0.10;;;1.20;99.90;;;;;;5065834;28;20466;-86
2022/03/25 05:06:23;;;;;;;0.30;0.10;;;1.20;99.90;;;;;;5067676;28;20454;-87
2022/03/25 05:08:50;;;;;;;0.30;0.13;;;1.10;99.90;;;;;;5084577;28;20183;-85
2022/03/25 05:11:17;;;;;;;0.30;0.10;;;1.10;99.90;;;;;;5088039;28;20481;-86
2022/03/25 05:13:45;;;;;;;0.30;0.20;;;1.10;99.90;;;;;;5065320;28;20444;-85
2022/03/25 05:16:12;;;;;;;0.30;0.10;;;1.10;99.90;;;;;;5071046;28;20451;-85
2022/03/25 05:18:39;;;;;;;0.30;0.10;;;1.10;99.90;;;;;;5065188;28;20593;-86
2022/03/25 05:21:06;;;;;;;0.30;0.10;;;1.20;99.90;;;;;;5071479;28;20537;-86
2022/03/25 05:23:33;;;;;;;1.43;1.03;;;1.30;99.90;;;;;;5085058;28;20226;-85
2022/03/25 05:26:00;;;;;;;0.50;0.30;;;1.30;99.50;;;;;;5071626;28;20934;-86
2022/03/25 05:28:27;;;;;;;0.30;0.10;;;1.30;99.50;;;;;;5059353;28;20452;-87
2022/03/25 05:30:55;;;;;;;0.30;0.10;;;1.40;99.50;;;;;;5051197;28;20487;-88
2022/03/25 05:33:23;;;;;;;0.30;0.10;;;1.60;99.20;;;;;;5064036;28;20448;-88
2022/03/25 05:35:50;;;;;;;0.30;0.10;;;1.60;99.00;;;;;;5062009;28;20972;-89
2022/03/25 05:38:17;;;;;;;0.30;0.10;;;1.70;98.70;;;;;;5059137;28;20460;-87
2022/03/25 05:40:44;;;;;;;2.10;2.00;;;1.80;98.60;;;;;;5062804;28;20452;-86
2022/03/25 05:43:12;;;;;;;1.27;1.27;;;1.80;98.40;;;;;;5063088;28;20551;-87
2022/03/25 05:45:39;;;;;;;0.37;0.27;;;1.90;98.20;;;;;;5065350;28;20821;-87
2022/03/25 05:48:08;;;;;;;0.30;0.20;;;2.00;97.90;;;;;;5061506;28;20456;-85
2022/03/25 05:50:35;;;;;;;0.30;0.10;;;2.10;98.30;;;;;;5060663;28;20556;-88
2022/03/25 05:53:02;;;;;;;0.30;0.10;;;2.20;98.40;;;;;;5069069;28;20844;-89
2022/03/25 05:55:29;;;;;;;0.30;0.10;;;2.30;98.00;;;;;;5063906;28;20452;-86
2022/03/25 05:57:56;;;;;;;0.30;0.10;;;2.60;97.10;;;;;;5066258;28;20495;-86
2022/03/25 06:00:23;;;;;;;2.20;2.10;;;2.70;96.10;;;;;;5064367;28;20536;-89
2022/03/25 06:02:50;;;;;;;0.40;0.40;;;2.70;95.90;;;;;;5048287;28;20456;-89
2022/03/25 06:05:19;;;;;;;0.83;0.83;;;2.90;95.80;;;;;;5059865;28;20914;-89
2022/03/25 06:07:46;;;;;;;0.30;0.20;;;2.90;95.80;;;;;;5061581;28;20447;-88
2022/03/25 06:10:15;;;;;;;0.30;0.10;;;2.90;95.90;;;;;;5069055;28;20537;-89
2022/03/25 06:12:42;;;;;;;0.40;0.30;;;3.00;95.70;;;;;;5052595;28;21011;-89
2022/03/25 06:15:10;;;;;;;0.30;0.10;;;3.20;95.80;;;;;;5044600;28;20475;-93
2022/03/25 06:17:45;;;;;;;0.30;0.10;;;3.20;95.50;;;;;;5052808;28;20449;-89
2022/03/25 06:20:13;;;;;;;0.30;0.10;;;3.40;95.40;;;;;;5035673;28;20468;-89
2022/03/25 06:22:42;;;;;;;0.30;0.20;;;3.50;94.90;;;;;;5052525;28;20865;-92
2022/03/25 06:25:12;;;;;;;0.30;0.20;;;3.60;94.50;;;;;;5048508;28;20944;-89
2022/03/25 06:27:47;;;;;;;1.43;1.33;;;3.90;94.40;;;;;;5051564;28;20457;-91
2022/03/25 06:30:14;;;;;;;0.30;0.10;;;3.90;93.90;;;;;;5067739;28;21043;-92
2022/03/25 06:32:42;;;;;;;0.60;0.60;;;4.10;93.80;;;;;;5052008;28;20453;-91
2022/03/25 06:35:09;;;;;;;0.83;0.30;;;4.20;93.40;;;;;;5052613;28;20502;-88
2022/03/25 06:37:36;;;;;;;0.30;0.10;;;4.40;93.10;;;;;;5045997;28;20818;-90
2022/03/25 06:40:07;;;;;;;0.30;0.20;;;4.40;92.80;;;;;;5052744;28;20494;-89
2022/03/25 06:42:35;;;;;;;0.40;0.30;;;4.60;92.40;;;;;;5056897;28;20456;-88
2022/03/25 06:45:02;;;;;;;0.53;0.53;;;4.70;92.30;;;;;;5051578;28;20465;-88
2022/03/25 06:47:29;;;;;;;0.50;0.30;;;4.70;92.30;;;;;;5055231;28;20908;-89
2022/03/25 06:49:57;;;;;;;0.30;0.20;;;4.80;92.10;;;;;;5045827;28;20824;-89
2022/03/25 06:52:25;;;;;;;1.47;0.50;;;4.80;91.90;;;;;;5051343;28;20935;-88
2022/03/25 06:54:52;;;;;;;0.30;0.10;;;5.10;91.90;;;;;;5053021;28;20429;-89
2022/03/25 06:57:21;;;;;;;0.30;0.20;;;5.00;91.80;;;;;;5048948;28;20469;-90
2022/03/25 06:59:48;;;;;;;0.40;0.20;;;5.20;91.70;;;;;;5052345;28;20522;-92
2022/03/25 07:02:16;;;;;;;0.30;0.20;;;5.30;91.40;;;;;;5053026;28;20437;-91
2022/03/25 07:04:44;;;;;;;0.30;0.20;;;5.60;91.10;;;;;;5057645;28;20521;-88
2022/03/25 07:07:12;;;;;;;0.30;0.10;;;5.70;90.80;;;;;;5075715;28;20503;-90
2022/03/25 07:09:39;;;;;;;0.30;0.17;;;5.80;90.60;;;;;;5050031;28;20531;-89
2022/03/25 07:12:07;;;;;;;0.30;0.20;;;5.90;90.40;;;;;;5051307;28;20481;-90
2022/03/25 07:14:36;;;;;;;0.30;0.20;;;6.10;89.50;;;;;;5034640;28;20446;-89
2022/03/25 07:17:03;;;;;;;0.40;0.30;;;6.20;89.00;;;;;;5058011;28;20449;-88
2022/03/25 07:19:30;;;;;;;1.37;0.70;;;6.30;89.20;;;;;;5062354;28;20525;-86
2022/03/25 07:21:57;;;;;;;0.30;0.10;;;6.30;88.40;;;;;;5066241;28;20476;-88
2022/03/25 07:24:24;;;;;;;0.40;0.33;;;6.30;87.80;;;;;;5062207;28;20449;-90
2022/03/25 07:26:51;;;;;;;0.60;0.60;;;6.60;87.80;;;;;;5056357;28;20465;-87
2022/03/25 07:29:18;;;;;;;0.30;0.20;;;6.80;87.40;;;;;;5045293;28;20437;-86
2022/03/25 07:31:46;;;;;;;0.40;0.33;;;7.00;86.90;;;;;;5057224;28;20473;-87
2022/03/25 07:34:14;;;;;;;0.50;0.50;;;7.10;86.10;;;;;;5067604;28;20480;-84
2022/03/25 07:36:41;;;;;;;0.40;0.20;;;7.30;84.90;;;;;;5063500;28;20633;-86
2022/03/25 07:39:08;;;;;;;0.30;0.10;;;7.50;84.10;;;;;;5046279;28;21324;-87
2022/03/25 07:41:35;;;;;;;0.40;0.40;;;7.60;82.80;;;;;;5049504;28;20484;-87
2022/03/25 07:44:02;;;;;;;0.40;0.20;;;7.50;84.30;;;;;;5075367;28;20448;-85
2022/03/25 07:46:30;;;;;;;0.40;0.30;;;7.40;82.90;;;;;;5070260;28;20470;-87
2022/03/25 07:48:58;;;;;;;1.37;1.27;;;7.50;82.50;;;;;;5056024;28;20517;-88
2022/03/25 07:51:25;;;;;;;0.30;0.20;;;7.80;82.50;;;;;;5051807;28;20527;-88
2022/03/25 07:53:52;;;;;;;0.30;0.20;;;8.00;81.30;;;;;;5051213;28;20502;-86
2022/03/25 07:56:19;;;;;;;0.40;0.27;;;8.20;81.70;;;;;;5045764;28;20452;-88
2022/03/25 07:58:46;;;;;;;0.30;0.10;;;8.20;78.50;;;;;;5052322;28;20451;-85
2022/03/25 08:01:13;;;;;;;0.83;0.83;;;8.20;77.90;;;;;;5055543;28;20451;-88
2022/03/25 08:03:40;;;;;;;0.40;0.40;;;8.20;80.20;;;;;;5055667;28;20514;-90
2022/03/25 08:06:09;;;;;;;0.30;0.10;;;8.40;77.90;;;;;;5061426;28;20443;-88
2022/03/25 08:08:36;;;;;;;0.40;0.20;;;8.30;77.30;;;;;;5061588;28;20467;-90
2022/03/25 08:11:03;;;;;;;0.30;0.30;;;8.50;76.60;;;;;;5063567;28;20509;-90
2022/03/25 08:13:30;;;;;;;0.30;0.20;;;8.70;76.80;;;;;;5051807;28;20508;-89
2022/03/25 08:15:57;;;;;;;0.30;0.10;;;8.80;74.30;;;;;;5062822;28;20532;-89
2022/03/25 08:18:24;;;;;;;0.30;0.20;;;8.70;73.10;;;;;;5063986;28;20475;-90
2022/03/25 08:20:53;;;;;;;0.30;0.20;;;8.80;73.40;;;;;;5062827;28;20462;-88
2022/03/25 08:28:48;;;;;;;0.60;0.60;;;8.90;75.10;;;;;;5069297;28;20453;-88
2022/03/25 08:31:15;;;;;;;0.60;0.33;;;9.10;71.30;;;;;;5064563;28;20475;-88
2022/03/25 08:33:43;;;;;;;0.30;0.20;;;9.30;70.60;;;;;;5058161;28;22189;-90
2022/03/25 08:36:10;;;;;;;0.40;0.20;;;9.30;71.70;;;;;;5059836;28;20504;-89
2022/03/25 08:38:38;;;;;;;0.40;0.30;;;9.60;72.40;;;;;;5064370;28;20491;-88
2022/03/25 08:41:05;;;;;;;0.30;0.20;;;9.60;72.30;;;;;;5065762;28;20827;-88
2022/03/25 08:43:32;;;;;;;0.60;0.30;;;9.60;71.60;;;;;;5065610;28;20456;-87
2022/03/25 08:45:59;;;;;;;0.40;0.30;;;9.70;70.40;;;;;;5077813;28;20436;-87
2022/03/25 08:48:27;;;;;;;0.40;0.30;;;10.10;71.50;;;;;;5069741;28;20552;-88
2022/03/25 08:50:54;;;;;;;0.40;0.30;;;10.20;70.60;;;;;;5075625;28;20989;-88
2022/03/25 08:53:21;;;;;;;0.50;0.50;;;10.40;69.30;;;;;;5086629;28;20448;-88
2022/03/25 08:55:50;;;;;;;0.60;0.60;;;10.30;64.70;;;;;;5076558;28;20517;-89
2022/03/25 08:58:17;;;;;;;0.83;0.83;;;10.40;65.50;;;;;;5068118;28;20954;-88
2022/03/25 09:00:44;;;;;;;0.50;0.50;;;10.40;66.10;;;;;;5088835;28;20456;-87
2022/03/25 09:03:12;;;;;;;0.40;0.23;;;10.60;67.00;;;;;;5061145;28;20506;-88
2022/03/25 09:05:39;;;;;;;0.30;0.20;;;10.80;65.40;;;;;;5055933;28;20458;-89
2022/03/25 09:08:07;;;;;;;0.50;0.47;;;10.80;64.20;;;;;;5060746;28;20444;-88
2022/03/25 09:10:34;;;;;;;0.30;0.20;;;10.90;65.10;;;;;;5068936;28;20514;-88
2022/03/25 09:13:03;;;;;;;2.23;1.10;;;11.10;63.50;;;;;;5065205;28;20938;-88
2022/03/25 09:15:30;;;;;;;0.40;0.30;;;11.20;65.00;;;;;;5066741;28;20538;-87
2022/03/25 09:17:57;;;;;;;0.30;0.20;;;11.60;66.10;;;;;;5059134;28;20558;-88
2022/03/25 09:20:24;;;;;;;0.40;0.40;;;11.70;65.80;;;;;;5065640;28;20448;-88
2022/03/25 09:22:54;;;;;;;2.10;0.83;;;11.70;64.60;;;;;;5058705;28;20546;-89
2022/03/25 09:25:23;;;;;;;0.40;0.30;;;11.80;61.00;;;;;;5067741;28;20773;-89
2022/03/25 09:27:51;;;;;;;0.40;0.30;;;12.00;61.30;;;;;;5067687;28;20895;-88
2022/03/25 09:30:19;;;;;;;1.87;1.07;;;12.30;61.40;;;;;;5038648;28;20940;-89
2022/03/25 09:32:46;;;;;;;0.30;0.20;;;12.30;60.00;;;;;;5034717;28;20481;-89
2022/03/25 09:35:14;;;;;;;0.40;0.30;;;12.20;60.30;;;;;;5051914;28;20461;-89
2022/03/25 09:37:43;;;;;;;0.33;0.20;;;12.50;61.80;;;;;;5053957;28;20444;-89
2022/03/25 09:40:13;;;;;;;0.40;0.40;;;12.50;59.10;;;;;;5049697;28;20520;-91
2022/03/25 09:42:41;;;;;;;0.83;0.80;;;12.70;57.90;;;;;;5052382;28;20480;-89
2022/03/25 09:45:11;;;;;;;1.20;0.80;;;12.70;57.30;;;;;;5053449;28;20448;-91
2022/03/25 09:47:40;;;;;;;1.13;0.63;;;12.80;58.50;;;;;;5052562;28;20460;-90
2022/03/25 09:50:12;;;;;;;0.40;0.37;;;12.90;59.40;;;;;;5052388;28;20452;-88
2022/03/25 09:52:42;;;;;;;0.60;0.50;;;12.80;57.70;;;;;;5052963;28;20971;-89
2022/03/25 09:55:10;;;;;;;5.17;0.77;;;13.10;57.90;;;;;;5053610;28;20492;-89
2022/03/25 09:57:38;;;;;;;0.80;0.77;;;13.30;58.30;;;;;;5060632;28;20453;-89
2022/03/25 10:00:07;;;;;;;1.73;0.40;;;13.60;57.60;;;;;;5067154;28;20466;-88
2022/03/25 10:02:34;;;;;;;0.40;0.30;;;13.70;56.20;;;;;;5075579;28;20457;-89
2022/03/25 10:05:15;;;;;;;0.50;0.40;;;13.90;56.30;;;;;;5080973;28;20453;-88
2022/03/25 10:07:45;;;;;;;0.80;0.40;;;13.80;55.40;;;;;;5039245;28;20864;-90
2022/03/25 10:10:14;;;;;;;1.43;0.43;;;13.90;56.00;;;;;;5053128;28;20809;-88
2022/03/25 10:12:44;;;;;;;0.80;0.80;;;13.90;53.40;;;;;;5054478;28;21144;-89
2022/03/25 10:15:14;;;;;;;2.47;1.23;;;13.90;53.60;;;;;;5067782;28;20464;-87
2022/03/25 10:17:53;;;;;;;1.37;1.27;;;14.00;53.80;;;;;;5085209;28;20506;-88
2022/03/25 10:20:24;;;;;;;0.77;0.60;;;14.10;52.40;;;;;;5047377;28;20526;-89
2022/03/25 10:23:06;;;;;;;0.40;0.30;;;14.20;54.80;;;;;;5065913;28;20470;-90
2022/03/25 10:25:39;;;;;;;0.93;0.70;;;14.40;55.70;;;;;;5059816;28;20455;-88
2022/03/25 10:28:18;;;;;;;0.37;0.23;;;14.50;53.00;;;;;;5056487;28;20462;-90
2022/03/25 10:30:47;;;;;;;4.23;1.80;;;14.40;50.90;;;;;;5055989;28;20464;-89
2022/03/25 10:33:21;;;;;;;2.00;1.23;;;14.80;53.60;;;;;;5051705;28;20487;-88
2022/03/25 10:35:58;;;;;;;1.07;0.60;;;14.60;51.70;;;;;;5042154;28;20902;-89
2022/03/25 10:38:26;;;;;;;1.53;0.50;;;14.80;53.20;;;;;;5062411;28;20447;-89
2022/03/25 10:40:54;;;;;;;0.60;0.60;;;14.80;50.40;;;;;;5051343;28;20448;-90
2022/03/25 10:43:23;;;;;;;1.13;0.90;;;14.90;51.00;;;;;;5051397;28;20933;-89
2022/03/25 10:45:50;;;;;;;0.80;0.47;;;14.90;52.30;;;;;;5032308;28;20453;-89
2022/03/25 10:48:19;;;;;;;1.73;1.43;;;15.00;49.20;;;;;;5049137;28;20464;-89
2022/03/25 10:51:07;;;;;;;1.33;1.30;;;15.20;47.40;;;;;;5052771;28;20444;-90
2022/03/25 10:53:36;;;;;;;0.40;0.30;;;15.50;47.90;;;;;;5048873;28;20474;-89
2022/03/25 10:56:06;;;;;;;5.23;2.07;;;15.60;50.80;;;;;;5070090;28;20845;-90
2022/03/25 10:58:35;;;;;;;2.77;1.73;;;15.80;47.60;;;;;;5053909;28;20459;-90
2022/03/25 11:01:02;;;;;;;0.70;0.70;;;16.00;48.80;;;;;;5051491;28;20464;-89
2022/03/25 11:03:29;;;;;;;0.40;0.30;;;16.00;46.10;;;;;;5051834;28;20525;-89
2022/03/25 11:05:57;;;;;;;1.47;0.60;;;16.00;46.60;;;;;;5051403;28;20526;-88
2022/03/25 11:08:25;;;;;;;0.97;0.43;;;15.90;46.70;;;;;;5055927;28;20457;-88
2022/03/25 11:10:53;;;;;;;0.77;0.60;;;15.90;46.70;;;;;;5046428;28;20471;-89
2022/03/25 11:13:23;;;;;;;1.63;1.53;;;16.10;48.30;;;;;;5039523;28;21091;-88
2022/03/25 11:15:52;;;;;;;1.33;1.23;;;16.10;48.50;;;;;;5051396;28;20465;-89
2022/03/25 11:18:22;;;;;;;1.33;1.27;;;16.40;46.50;;;;;;5051755;28;20534;-88
2022/03/25 11:20:52;;;;;;;0.87;0.87;;;16.60;47.30;;;;;;5052289;28;20546;-89
2022/03/25 11:23:24;;;;;;;4.33;2.20;;;16.90;48.50;;;;;;5054946;28;20877;-88
2022/03/25 11:25:56;;;;;;;2.03;0.70;;;16.60;44.00;;;;;;5047777;28;20466;-88
2022/03/25 11:28:30;;;;;;;2.70;2.50;;;16.60;44.70;;;;;;5047484;28;20442;-87
2022/03/25 11:30:59;;;;;;;0.90;0.90;;;16.80;46.30;;;;;;5063208;28;20473;-89
2022/03/25 11:33:26;;;;;;;1.43;1.33;;;17.10;46.40;;;;;;5075751;28;20488;-88
2022/03/25 11:36:15;;;;;;;3.20;0.63;;;17.00;43.00;;;;;;5056246;28;21000;-89
2022/03/25 11:38:42;;;;;;;1.37;1.23;;;17.20;45.00;;;;;;5059800;28;20541;-89
2022/03/25 11:41:23;;;;;;;2.10;1.10;;;17.50;46.10;;;;;;5064683;28;20463;-89
2022/03/25 11:44:19;;;;;;;2.47;0.90;;;17.20;44.70;;;;;;5066618;28;20947;-90
2022/03/25 11:47:17;;;;;;;0.87;0.87;;;17.40;45.30;;;;;;5054717;28;21070;-89
2022/03/25 11:49:45;;;;;;;1.53;1.00;;;17.40;42.90;;;;;;5063419;28;21042;-89
2022/03/25 11:52:30;;;;;;;3.70;1.17;;;17.50;45.10;;;;;;5062981;28;20551;-88
2022/03/25 11:54:59;;;;;;;4.27;2.97;;;17.30;43.90;;;;;;5046761;28;20466;-88
2022/03/25 11:57:29;;;;;;;2.37;1.27;;;17.60;44.50;;;;;;5059289;28;20490;-89
2022/03/25 11:59:57;;;;;;;2.73;0.77;;;17.80;43.60;;;;;;5057384;28;20471;-90
2022/03/25 12:02:33;;;;;;;4.13;2.13;;;17.90;41.30;;;;;;5062707;28;20454;-89
2022/03/25 12:05:01;;;;;;;2.57;0.90;;;17.80;41.20;;;;;;5058914;28;20464;-89
2022/03/25 12:07:29;;;;;;;2.80;2.20;;;17.70;42.60;;;;;;5055391;28;20530;-89
2022/03/25 12:09:56;;;;;;;1.60;1.30;;;17.60;42.90;;;;;;5065559;28;20458;-88
2022/03/25 12:12:57;;;;;;;1.13;0.77;;;17.40;40.00;;;;;;5078782;28;20474;-88
2022/03/25 12:15:44;;;;;;;1.90;1.57;;;17.70;43.10;;;;;;5077771;28;20455;-90
2022/03/25 12:18:39;;;;;;;3.40;0.80;;;18.30;41.20;;;;;;5083001;28;20843;-89
2022/03/25 12:21:12;;;;;;;0.60;0.60;;;18.40;37.80;;;;;;5081846;28;20473;-88
2022/03/25 12:23:39;;;;;;;2.50;1.13;;;18.10;39.80;;;;;;5071793;28;20798;-90
2022/03/25 12:26:06;;;;;;;0.70;0.53;;;18.10;36.90;;;;;;5065044;28;20451;-89
2022/03/25 12:28:35;;;;;;;0.93;0.93;;;18.00;38.30;;;;;;5062253;28;20456;-89
2022/03/25 12:31:04;;;;;;;1.30;1.10;;;18.00;35.60;;;;;;5063951;28;20518;-90
2022/03/25 12:33:32;;;;;;;0.50;0.40;;;17.90;36.50;;;;;;5061183;28;20496;-90
2022/03/25 12:36:05;;;;;;;1.03;1.00;;;18.20;39.10;;;;;;5063679;28;20506;-89
2022/03/25 12:38:32;;;;;;;0.57;0.57;;;18.60;38.30;;;;;;5063789;28;20456;-90
2022/03/25 12:40:59;;;;;;;2.97;0.60;;;19.00;37.80;;;;;;5064098;28;20497;-89
2022/03/25 12:43:30;;;;;;;1.70;0.77;;;19.10;36.60;;;;;;5057176;28;20448;-89
2022/03/25 12:45:59;;;;;;;0.87;0.83;;;18.90;35.00;;;;;;5064688;28;20470;-89
2022/03/25 12:48:26;;;;;;;1.20;1.10;;;18.80;34.50;;;;;;5078778;28;20454;-89
2022/03/25 12:50:56;;;;;;;1.97;1.23;;;18.60;34.70;;;;;;5076738;28;20451;-87
2022/03/25 12:53:24;;;;;;;1.03;1.03;;;18.60;36.70;;;;;;5077674;28;20562;-89
2022/03/25 12:55:51;;;;;;;2.50;0.70;;;18.60;36.00;;;;;;5057563;28;20459;-87
2022/03/25 12:58:21;;;;;;;3.80;1.87;;;18.70;36.80;;;;;;5058843;28;20470;-85
2022/03/25 13:00:49;;;;;;;1.37;1.27;;;19.00;36.90;;;;;;5067828;28;20512;-85
2022/03/25 13:03:19;;;;;;;8.33;1.57;;;19.10;36.60;;;;;;5056422;28;20449;-88
2022/03/25 13:05:46;;;;;;;3.33;2.17;;;18.70;35.40;;;;;;5050000;28;20449;-90